Time;durP1;ratioP1;P1;durP2;ratioP2;P2;SDS_P1;SDS_P2;PMS_P1;PMS_P2;Temp;Humidity;BMP_temperature;BMP_pressure;BME280_temperature;BME280_humidity;BME280_pressure;Samples;Min_cycle;Max_cycle;Signal;HPM_P1;HPM_P2
2022/08/08 00:01:43;;;;;;;5.22;4.10;;;;;;;;;;5034089;28;20120;-68
2022/08/08 00:04:33;;;;;;;5.90;3.90;;;;;;;;;;5033787;28;20049;-68
2022/08/08 00:07:01;;;;;;;5.90;3.60;;;;;;;;;;5033945;28;20053;-68
2022/08/08 00:09:47;;;;;;;9.18;4.05;;;;;;;;;;5034084;28;20046;-68
2022/08/08 00:12:20;;;;;;;6.32;3.63;;;;;;;;;;5033756;28;20543;-68
2022/08/08 00:14:49;;;;;;;5.65;3.67;;;;;;;;;;5033776;28;20137;-68
2022/08/08 00:17:48;;;;;;;4.63;3.58;;;;;;;;;;5034016;28;20414;-68
2022/08/08 00:20:43;;;;;;;4.35;3.60;;;;;;;;;;5033630;28;20053;-68
2022/08/08 00:23:30;;;;;;;6.15;3.55;;;;;;;;;;5033646;28;20053;-68
2022/08/08 00:26:16;;;;;;;4.85;3.80;;;;;;;;;;5033050;28;20456;-68
2022/08/08 00:29:00;;;;;;;4.65;3.75;;;;;;;;;;5033675;28;20054;-68
2022/08/08 00:31:35;;;;;;;5.25;3.30;;;;;;;;;;5033637;28;20067;-68
2022/08/08 00:37:48;;;;;;;3.75;3.40;;;;;;;;;;5033192;28;20056;-68
2022/08/08 00:40:27;;;;;;;4.63;3.28;;;;;;;;;;5033517;28;20049;-68
2022/08/08 00:43:30;;;;;;;4.50;2.80;;;;;;;;;;5033374;28;20049;-68
2022/08/08 00:46:09;;;;;;;4.43;3.33;;;;;;;;;;5033402;28;20046;-68
2022/08/08 00:49:01;;;;;;;3.40;3.13;;;;;;;;;;5033019;28;20092;-67
2022/08/08 00:51:30;;;;;;;4.13;3.20;;;;;;;;;;5032931;28;20088;-67
2022/08/08 00:54:23;;;;;;;4.68;3.13;;;;;;;;;;5033201;28;20046;-68
2022/08/08 00:57:15;;;;;;;4.50;2.97;;;;;;;;;;5032734;28;20063;-67
2022/08/08 01:00:02;;;;;;;5.15;2.92;;;;;;;;;;5032949;28;20111;-68
2022/08/08 01:02:31;;;;;;;4.78;2.90;;;;;;;;;;5032934;28;20056;-68
2022/08/08 01:05:42;;;;;;;3.47;3.03;;;;;;;;;;5032517;28;20490;-68
2022/08/08 01:08:44;;;;;;;2.85;2.65;;;;;;;;;;5032547;28;20635;-68
2022/08/08 01:11:23;;;;;;;3.72;3.35;;;;;;;;;;5032861;28;20425;-68
2022/08/08 01:13:53;;;;;;;3.30;3.00;;;;;;;;;;5032718;28;20095;-68
2022/08/08 01:16:32;;;;;;;7.05;3.20;;;;;;;;;;5032809;28;20085;-68
2022/08/08 01:19:17;;;;;;;3.33;2.92;;;;;;;;;;5032790;28;20050;-68
2022/08/08 01:22:09;;;;;;;4.00;2.75;;;;;;;;;;5032220;28;20429;-68
2022/08/08 01:24:44;;;;;;;3.28;2.78;;;;;;;;;;5032642;28;20045;-68
2022/08/08 01:27:38;;;;;;;3.28;2.88;;;;;;;;;;5032264;28;20049;-68
2022/08/08 01:30:11;;;;;;;3.95;3.28;;;;;;;;;;5032512;28;20077;-68
2022/08/08 01:32:37;;;;;;;6.15;3.42;;;;;;;;;;5032372;28;20072;-68
2022/08/08 01:35:08;;;;;;;3.33;3.03;;;;;;;;;;5032136;28;20448;-68
2022/08/08 01:37:40;;;;;;;3.35;3.03;;;;;;;;;;5032416;28;20095;-68
2022/08/08 01:40:36;;;;;;;4.28;3.00;;;;;;;;;;5032293;28;20160;-67
2022/08/08 01:43:06;;;;;;;4.03;3.05;;;;;;;;;;5031993;28;20068;-68
2022/08/08 01:45:33;;;;;;;3.25;2.95;;;;;;;;;;5031921;28;20378;-68
2022/08/08 01:48:09;;;;;;;3.60;3.22;;;;;;;;;;5032236;28;20049;-68
2022/08/08 01:51:04;;;;;;;3.42;3.00;;;;;;;;;;5031596;28;20045;-68
2022/08/08 01:53:50;;;;;;;3.53;2.90;;;;;;;;;;5032102;28;20072;-68
2022/08/08 01:56:39;;;;;;;3.23;2.90;;;;;;;;;;5031788;28;20049;-68
2022/08/08 01:59:18;;;;;;;3.10;2.58;;;;;;;;;;5032056;28;20053;-68
2022/08/08 02:02:03;;;;;;;2.95;2.58;;;;;;;;;;5031001;28;20124;-68
2022/08/08 02:04:41;;;;;;;4.43;3.17;;;;;;;;;;5031761;28;20059;-68
2022/08/08 02:07:14;;;;;;;4.35;2.95;;;;;;;;;;5031334;28;20057;-68
2022/08/08 02:10:01;;;;;;;4.18;3.10;;;;;;;;;;5031925;28;20052;-68
2022/08/08 02:12:52;;;;;;;3.03;2.72;;;;;;;;;;5031663;28;20084;-68
2022/08/08 02:15:24;;;;;;;4.15;3.03;;;;;;;;;;5031598;28;20436;-68
2022/08/08 02:17:50;;;;;;;4.25;2.83;;;;;;;;;;5031581;28;20089;-68
2022/08/08 02:20:27;;;;;;;3.70;3.03;;;;;;;;;;5031745;28;20128;-68
2022/08/08 02:23:22;;;;;;;4.10;2.60;;;;;;;;;;5031559;28;20390;-68
2022/08/08 02:26:01;;;;;;;3.53;2.47;;;;;;;;;;5031643;28;20046;-68
2022/08/08 02:28:30;;;;;;;3.13;2.75;;;;;;;;;;5031419;28;20129;-68
2022/08/08 02:31:18;;;;;;;3.45;2.95;;;;;;;;;;5031834;28;20049;-68
2022/08/08 02:34:08;;;;;;;4.70;3.33;;;;;;;;;;5031633;28;20049;-68
2022/08/08 02:36:46;;;;;;;3.40;2.95;;;;;;;;;;5031642;28;20103;-68
2022/08/08 02:39:24;;;;;;;3.47;3.00;;;;;;;;;;5031588;28;20103;-68
2022/08/08 02:42:16;;;;;;;5.97;3.17;;;;;;;;;;5031250;28;20052;-68
2022/08/08 02:45:12;;;;;;;3.28;2.95;;;;;;;;;;5031323;28;20481;-68
2022/08/08 02:47:52;;;;;;;3.03;2.80;;;;;;;;;;5031590;28;20072;-68
2022/08/08 02:50:33;;;;;;;3.35;2.97;;;;;;;;;;5031588;28;20100;-68
2022/08/08 02:53:19;;;;;;;4.88;3.33;;;;;;;;;;5031597;28;20136;-68
2022/08/08 02:56:07;;;;;;;2.90;2.60;;;;;;;;;;5031466;28;20088;-68
2022/08/08 02:58:44;;;;;;;4.00;2.78;;;;;;;;;;5031445;28;20190;-68
2022/08/08 03:01:13;;;;;;;2.83;2.60;;;;;;;;;;5031437;28;20447;-68
2022/08/08 03:03:40;;;;;;;3.42;2.90;;;;;;;;;;5032934;28;20049;-68
2022/08/08 03:06:27;;;;;;;3.97;3.28;;;;;;;;;;5034889;28;20050;-69
2022/08/08 03:09:18;;;;;;;2.95;2.75;;;;;;;;;;5035102;28;20073;-68
2022/08/08 03:12:10;;;;;;;3.40;2.75;;;;;;;;;;5034847;28;20091;-68
2022/08/08 03:14:44;;;;;;;3.13;2.92;;;;;;;;;;5034776;28;20128;-68
2022/08/08 03:17:38;;;;;;;5.32;2.65;;;;;;;;;;5034991;28;20408;-68
2022/08/08 03:20:05;;;;;;;4.55;3.08;;;;;;;;;;5033445;28;20042;-68
2022/08/08 03:22:53;;;;;;;3.65;2.97;;;;;;;;;;5034810;28;20092;-68
2022/08/08 03:25:25;;;;;;;4.97;2.88;;;;;;;;;;5034733;28;20045;-68
2022/08/08 03:28:03;;;;;;;2.50;2.30;;;;;;;;;;5034705;28;20057;-68
2022/08/08 03:30:30;;;;;;;3.33;2.72;;;;;;;;;;5034505;28;20508;-68
2022/08/08 03:33:18;;;;;;;3.40;2.40;;;;;;;;;;5034793;28;20087;-68
2022/08/08 03:36:04;;;;;;;2.95;2.67;;;;;;;;;;5034634;28;20061;-68
2022/08/08 03:38:36;;;;;;;4.65;2.85;;;;;;;;;;5034545;28;20136;-68
2022/08/08 03:41:30;;;;;;;3.45;2.60;;;;;;;;;;5034406;28;20063;-68
2022/08/08 03:44:16;;;;;;;5.63;2.55;;;;;;;;;;5034131;28;20054;-68
2022/08/08 03:46:46;;;;;;;3.45;2.80;;;;;;;;;;5034161;28;20390;-68
2022/08/08 03:49:17;;;;;;;3.53;2.55;;;;;;;;;;5034433;28;20073;-68
2022/08/08 03:52:04;;;;;;;2.45;2.08;;;;;;;;;;5034012;28;20516;-68
2022/08/08 03:54:30;;;;;;;3.53;2.47;;;;;;;;;;5034211;28;20046;-68
2022/08/08 03:57:17;;;;;;;3.67;2.90;;;;;;;;;;5034234;28;20164;-68
2022/08/08 04:00:11;;;;;;;3.78;2.90;;;;;;;;;;5033096;28;20047;-68
2022/08/08 04:02:52;;;;;;;4.47;3.08;;;;;;;;;;5034068;28;20042;-68
2022/08/08 04:05:20;;;;;;;3.58;3.10;;;;;;;;;;5033716;28;20132;-68
2022/08/08 04:07:54;;;;;;;4.35;3.60;;;;;;;;;;5034077;28;20045;-68
2022/08/08 04:10:21;;;;;;;3.40;2.83;;;;;;;;;;5033596;28;20104;-68
2022/08/08 04:12:47;;;;;;;3.60;2.95;;;;;;;;;;5033654;28;20092;-68
2022/08/08 04:15:15;;;;;;;3.10;2.80;;;;;;;;;;5033217;28;20056;-68
2022/08/08 04:17:41;;;;;;;4.78;3.28;;;;;;;;;;5033869;28;20112;-68
2022/08/08 04:20:23;;;;;;;3.33;2.97;;;;;;;;;;5033636;28;20445;-68
2022/08/08 04:22:54;;;;;;;3.33;2.90;;;;;;;;;;5033755;28;20041;-67
2022/08/08 04:25:23;;;;;;;3.20;2.90;;;;;;;;;;5033681;28;20091;-68
2022/08/08 04:27:55;;;;;;;4.50;3.13;;;;;;;;;;5033568;28;20053;-68
2022/08/08 04:30:42;;;;;;;4.00;3.03;;;;;;;;;;5033360;28;20050;-68
2022/08/08 04:33:10;;;;;;;2.75;2.45;;;;;;;;;;5033347;28;20076;-68
2022/08/08 04:35:38;;;;;;;5.32;2.75;;;;;;;;;;5033230;28;20528;-68
2022/08/08 04:38:06;;;;;;;4.00;3.05;;;;;;;;;;5033485;28;20132;-68
2022/08/08 04:40:35;;;;;;;2.95;2.38;;;;;;;;;;5033379;28;20482;-67
2022/08/08 04:43:02;;;;;;;3.03;2.83;;;;;;;;;;5033043;28;20054;-67
2022/08/08 04:45:31;;;;;;;3.42;3.10;;;;;;;;;;5033104;28;20048;-67
2022/08/08 04:47:59;;;;;;;4.22;2.92;;;;;;;;;;5033020;28;20048;-68
2022/08/08 04:50:26;;;;;;;4.75;3.08;;;;;;;;;;5032899;28;20056;-68
2022/08/08 04:53:03;;;;;;;3.53;2.95;;;;;;;;;;5033025;28;20489;-68
2022/08/08 04:55:39;;;;;;;5.43;2.78;;;;;;;;;;5033161;28;20046;-68
2022/08/08 04:58:21;;;;;;;4.82;3.47;;;;;;;;;;5032868;28;20060;-68
2022/08/08 05:00:48;;;;;;;5.03;2.80;;;;;;;;;;5032848;28;20076;-68
2022/08/08 05:03:15;;;;;;;3.33;2.60;;;;;;;;;;5032982;28;20132;-68
2022/08/08 05:06:02;;;;;;;4.80;3.17;;;;;;;;;;5032894;28;20409;-67
2022/08/08 05:08:39;;;;;;;4.03;2.95;;;;;;;;;;5032683;28;20285;-68
2022/08/08 05:11:06;;;;;;;;;;;;;;;;;;5032908;28;20049;-68
2022/08/08 05:13:33;;;;;;;4.50;3.10;;;;;;;;;;5032570;28;20016;-68
2022/08/08 05:16:20;;;;;;;3.95;2.50;;;;;;;;;;5032521;28;20814;-68
2022/08/08 05:19:11;;;;;;;4.57;3.13;;;;;;;;;;5032448;28;20055;-68
2022/08/08 05:21:57;;;;;;;4.85;2.78;;;;;;;;;;5032647;28;20144;-68
2022/08/08 05:24:25;;;;;;;5.75;3.13;;;;;;;;;;5032607;28;20046;-68
2022/08/08 05:26:52;;;;;;;3.70;3.03;;;;;;;;;;5031801;28;20076;-68
2022/08/08 05:29:18;;;;;;;4.18;3.40;;;;;;;;;;5032531;28;20045;-68
2022/08/08 05:31:45;;;;;;;5.40;3.05;;;;;;;;;;5032478;28;20132;-68
2022/08/08 05:34:35;;;;;;;4.22;3.05;;;;;;;;;;5032528;28;20053;-68
2022/08/08 05:37:03;;;;;;;6.78;2.97;;;;;;;;;;5032108;28;20057;-67
2022/08/08 05:39:48;;;;;;;4.07;3.13;;;;;;;;;;5032074;28;20553;-68
2022/08/08 05:42:15;;;;;;;4.03;3.05;;;;;;;;;;5032338;28;20096;-68
2022/08/08 05:44:45;;;;;;;3.63;3.10;;;;;;;;;;5032180;28;20134;-67
2022/08/08 05:47:15;;;;;;;4.68;3.30;;;;;;;;;;5031960;28;20087;-67
2022/08/08 05:49:47;;;;;;;4.95;3.40;;;;;;;;;;5032047;28;20049;-68
2022/08/08 05:52:21;;;;;;;3.10;2.72;;;;;;;;;;5031897;28;20059;-68
2022/08/08 05:54:59;;;;;;;3.33;2.88;;;;;;;;;;5031914;28;20563;-68
2022/08/08 05:57:35;;;;;;;5.07;3.15;;;;;;;;;;5031940;28;20111;-68
2022/08/08 06:00:23;;;;;;;4.05;3.08;;;;;;;;;;5031978;28;20087;-69
2022/08/08 06:03:10;;;;;;;2.85;2.65;;;;;;;;;;5031314;28;20533;-68
2022/08/08 06:05:49;;;;;;;3.22;2.92;;;;;;;;;;5031597;28;20050;-70
2022/08/08 06:08:27;;;;;;;3.33;3.08;;;;;;;;;;5031715;28;20052;-70
2022/08/08 06:11:01;;;;;;;3.90;3.00;;;;;;;;;;5032020;28;20045;-70
2022/08/08 06:13:30;;;;;;;4.35;3.20;;;;;;;;;;5031884;28;20053;-70
2022/08/08 06:16:01;;;;;;;5.65;3.30;;;;;;;;;;5031341;28;20053;-70
2022/08/08 06:18:28;;;;;;;5.25;2.85;;;;;;;;;;5031259;28;20049;-70
2022/08/08 06:20:56;;;;;;;5.85;3.70;;;;;;;;;;5031085;28;20053;-70
2022/08/08 06:23:23;;;;;;;4.40;3.40;;;;;;;;;;5031047;28;20551;-70
2022/08/08 06:26:10;;;;;;;5.25;3.58;;;;;;;;;;5031019;28;20055;-70
2022/08/08 06:28:56;;;;;;;4.45;3.28;;;;;;;;;;5031314;28;20050;-68
2022/08/08 06:31:32;;;;;;;3.85;3.55;;;;;;;;;;5031537;28;20060;-70
2022/08/08 06:34:22;;;;;;;4.05;3.42;;;;;;;;;;5028705;28;20046;-70
2022/08/08 06:36:55;;;;;;;6.47;3.38;;;;;;;;;;5031622;28;20141;-70
2022/08/08 06:39:26;;;;;;;4.18;3.28;;;;;;;;;;5033763;28;20073;-70
2022/08/08 06:42:01;;;;;;;4.90;3.40;;;;;;;;;;5035789;28;20413;-70
2022/08/08 06:44:28;;;;;;;5.10;3.28;;;;;;;;;;5035175;28;20088;-70
2022/08/08 06:46:56;;;;;;;3.67;3.17;;;;;;;;;;5035353;28;20050;-70
2022/08/08 06:49:23;;;;;;;;;;;;;;;;;;5035896;28;20472;-72
2022/08/08 06:52:09;;;;;;;6.88;3.38;;;;;;;;;;5034907;28;20365;-71
2022/08/08 06:54:41;;;;;;;3.55;3.22;;;;;;;;;;5035284;28;20046;-70
2022/08/08 06:57:08;;;;;;;;;;;;;;;;;;5035507;28;20110;-75
2022/08/08 06:59:36;;;;;;;4.40;2.90;;;;;;;;;;5034478;28;20352;-72
2022/08/08 07:02:24;;;;;;;6.20;3.28;;;;;;;;;;5034952;28;20528;-73
2022/08/08 07:05:03;;;;;;;5.05;3.03;;;;;;;;;;5034874;28;20049;-72
2022/08/08 07:07:30;;;;;;;3.22;2.72;;;;;;;;;;5034848;28;20053;-71
2022/08/08 07:10:00;;;;;;;4.60;2.78;;;;;;;;;;5035069;28;20049;-72
2022/08/08 07:12:49;;;;;;;3.13;2.80;;;;;;;;;;5034438;28;20053;-71
2022/08/08 07:15:16;;;;;;;5.88;2.60;;;;;;;;;;5035113;28;20084;-69
2022/08/08 07:18:04;;;;;;;4.00;2.78;;;;;;;;;;5034984;28;20061;-72
2022/08/08 07:20:53;;;;;;;3.28;2.47;;;;;;;;;;5034801;28;20057;-70
2022/08/08 07:23:26;;;;;;;4.95;2.30;;;;;;;;;;5034712;28;20045;-70
2022/08/08 07:26:15;;;;;;;4.78;2.90;;;;;;;;;;5034465;28;20481;-69
2022/08/08 07:28:54;;;;;;;3.13;2.45;;;;;;;;;;5034619;28;20570;-69
2022/08/08 07:31:22;;;;;;;3.75;2.42;;;;;;;;;;5032912;28;20049;-73
2022/08/08 07:33:49;;;;;;;3.42;2.13;;;;;;;;;;5033169;28;20460;-72
2022/08/08 07:36:24;;;;;;;3.13;2.20;;;;;;;;;;5033683;28;20156;-72
2022/08/08 07:38:51;;;;;;;6.55;2.60;;;;;;;;;;5034496;28;20128;-70
2022/08/08 07:41:18;;;;;;;;;;;;;;;;;;5035082;28;20132;-71
2022/08/08 07:43:53;;;;;;;4.13;2.30;;;;;;;;;;5034170;28;20371;-71
2022/08/08 07:46:20;;;;;;;4.30;2.30;;;;;;;;;;5034305;28;20583;-72
2022/08/08 07:48:55;;;;;;;5.53;2.35;;;;;;;;;;5032714;28;20099;-71
2022/08/08 07:51:23;;;;;;;4.53;2.20;;;;;;;;;;5033990;28;20436;-67
2022/08/08 07:54:33;;;;;;;3.40;2.03;;;;;;;;;;5033073;28;20049;-70
2022/08/08 07:57:12;;;;;;;4.38;2.10;;;;;;;;;;5034257;28;20081;-70
2022/08/08 08:00:04;;;;;;;2.20;1.73;;;;;;;;;;5033902;28;20057;-71
2022/08/08 08:02:43;;;;;;;4.20;2.00;;;;;;;;;;5033557;28;20132;-74
2022/08/08 08:05:22;;;;;;;3.17;2.03;;;;;;;;;;5033094;28;20076;-72
2022/08/08 08:08:03;;;;;;;2.83;1.63;;;;;;;;;;5032084;28;20045;-71
2022/08/08 08:10:30;;;;;;;3.15;1.65;;;;;;;;;;5033927;28;20045;-72
2022/08/08 08:13:21;;;;;;;2.60;1.58;;;;;;;;;;5033975;28;20045;-75
2022/08/08 08:16:02;;;;;;;3.13;1.45;;;;;;;;;;5034185;28;20634;-70
2022/08/08 08:18:50;;;;;;;2.97;1.52;;;;;;;;;;5033902;28;20042;-71
2022/08/08 08:21:23;;;;;;;2.50;1.38;;;;;;;;;;5032967;28;20045;-71
2022/08/08 08:24:10;;;;;;;3.30;1.35;;;;;;;;;;5033590;28;20156;-69
2022/08/08 08:26:37;;;;;;;2.42;1.35;;;;;;;;;;5033619;28;20470;-73
2022/08/08 08:29:12;;;;;;;3.35;1.38;;;;;;;;;;5033796;28;20053;-73
2022/08/08 08:31:41;;;;;;;4.03;1.50;;;;;;;;;;5033435;28;20095;-72
2022/08/08 08:34:08;;;;;;;2.30;1.42;;;;;;;;;;5033656;28;20089;-72
2022/08/08 08:36:34;;;;;;;2.67;1.10;;;;;;;;;;5033546;28;20049;-74
2022/08/08 08:39:02;;;;;;;2.97;1.40;;;;;;;;;;5033006;28;20564;-74
2022/08/08 08:41:33;;;;;;;2.40;1.38;;;;;;;;;;5033094;28;20464;-71
2022/08/08 08:44:01;;;;;;;3.65;1.40;;;;;;;;;;5032668;28;20085;-75
2022/08/08 08:46:39;;;;;;;2.30;1.20;;;;;;;;;;5031582;28;20048;-71
2022/08/08 08:49:13;;;;;;;2.20;1.08;;;;;;;;;;5032595;28;20056;-72
2022/08/08 08:51:41;;;;;;;1.70;1.20;;;;;;;;;;5032182;28;20501;-70
2022/08/08 08:54:18;;;;;;;2.85;1.30;;;;;;;;;;5032658;28;20052;-71
2022/08/08 08:56:51;;;;;;;2.85;1.35;;;;;;;;;;5032684;28;20060;-69
2022/08/08 08:59:17;;;;;;;2.63;1.20;;;;;;;;;;5032244;28;20081;-71
2022/08/08 09:02:07;;;;;;;2.38;1.30;;;;;;;;;;5031472;28;20080;-73
2022/08/08 09:04:37;;;;;;;2.58;1.10;;;;;;;;;;5032419;28;20124;-74
2022/08/08 09:07:17;;;;;;;2.63;1.30;;;;;;;;;;5032408;28;20053;-73
2022/08/08 09:09:45;;;;;;;2.25;1.20;;;;;;;;;;5032856;28;20084;-73
2022/08/08 09:12:15;;;;;;;2.58;1.05;;;;;;;;;;5032613;28;20402;-72
2022/08/08 09:14:46;;;;;;;2.20;1.00;;;;;;;;;;5032733;28;20464;-73
2022/08/08 09:17:13;;;;;;;2.65;1.20;;;;;;;;;;5032504;28;20516;-73
2022/08/08 09:19:45;;;;;;;2.83;1.10;;;;;;;;;;5032729;28;20115;-72
2022/08/08 09:22:33;;;;;;;2.53;1.30;;;;;;;;;;5032686;28;20132;-72
2022/08/08 09:25:01;;;;;;;2.67;0.98;;;;;;;;;;5032231;28;20050;-72
2022/08/08 09:27:29;;;;;;;2.85;1.05;;;;;;;;;;5032267;28;20081;-72
2022/08/08 09:30:15;;;;;;;1.02;0.88;;;;;;;;;;5032240;28;20043;-71
2022/08/08 09:32:55;;;;;;;5.32;1.25;;;;;;;;;;5031742;28;20050;-71
2022/08/08 09:35:43;;;;;;;2.75;1.13;;;;;;;;;;5032334;28;20053;-71
2022/08/08 09:38:36;;;;;;;1.52;1.02;;;;;;;;;;5032177;28;20049;-72
2022/08/08 09:41:24;;;;;;;1.60;0.90;;;;;;;;;;5032445;28;20163;-72
2022/08/08 09:44:03;;;;;;;2.90;1.08;;;;;;;;;;5031986;28;20045;-71
2022/08/08 09:46:43;;;;;;;1.58;1.20;;;;;;;;;;5032395;28;20049;-72
2022/08/08 09:49:23;;;;;;;2.17;0.77;;;;;;;;;;5032352;28;20045;-71
2022/08/08 09:52:09;;;;;;;2.78;0.95;;;;;;;;;;5031806;28;20052;-71
2022/08/08 09:54:56;;;;;;;1.42;0.90;;;;;;;;;;5032188;28;20500;-71
2022/08/08 09:57:44;;;;;;;3.45;1.15;;;;;;;;;;5031813;28;20057;-71
2022/08/08 10:00:12;;;;;;;1.83;0.98;;;;;;;;;;5031819;28;20453;-71
2022/08/08 10:03:01;;;;;;;3.67;1.00;;;;;;;;;;5031798;28;20817;-71
2022/08/08 10:05:32;;;;;;;6.95;5.18;;;;;;;;;;5031591;28;20057;-71
2022/08/08 10:08:00;;;;;;;1.85;1.15;;;;;;;;;;5032097;28;20045;-71
2022/08/08 10:10:26;;;;;;;2.78;1.08;;;;;;;;;;5031646;28;20049;-72
2022/08/08 10:12:57;;;;;;;1.42;0.63;;;;;;;;;;5031227;28;20049;-72
2022/08/08 10:15:41;;;;;;;2.63;1.02;;;;;;;;;;5031930;28;20061;-71
2022/08/08 10:18:28;;;;;;;1.75;1.00;;;;;;;;;;5031940;28;20049;-71
2022/08/08 10:21:03;;;;;;;2.38;1.05;;;;;;;;;;5031702;28;20115;-71
2022/08/08 10:23:50;;;;;;;2.65;0.93;;;;;;;;;;5031745;28;20067;-71
2022/08/08 10:26:30;;;;;;;7.63;1.50;;;;;;;;;;5031870;28;20068;-71
2022/08/08 10:29:18;;;;;;;4.50;1.13;;;;;;;;;;5031525;28;20053;-71
2022/08/08 10:34:48;;;;;;;2.92;1.00;;;;;;;;;;5031499;28;20144;-71
2022/08/08 10:37:29;;;;;;;1.95;0.63;;;;;;;;;;5031440;28;20546;-69
2022/08/08 10:39:56;;;;;;;1.45;0.47;;;;;;;;;;5031672;28;20101;-69
2022/08/08 10:42:30;;;;;;;1.25;0.70;;;;;;;;;;5031346;28;20050;-69
2022/08/08 10:44:58;;;;;;;1.48;0.90;;;;;;;;;;5031371;28;20052;-69
2022/08/08 10:47:26;;;;;;;1.17;0.70;;;;;;;;;;5031635;28;20045;-69
2022/08/08 10:50:02;;;;;;;1.67;0.70;;;;;;;;;;5031476;28;20064;-70
2022/08/08 10:52:29;;;;;;;1.42;0.60;;;;;;;;;;5031277;28;20064;-69
2022/08/08 10:55:10;;;;;;;2.90;0.80;;;;;;;;;;5031132;28;20056;-69
2022/08/08 10:57:38;;;;;;;3.13;0.70;;;;;;;;;;5030919;28;20076;-71
2022/08/08 11:00:20;;;;;;;1.42;0.90;;;;;;;;;;5031210;28;20050;-72
2022/08/08 11:02:49;;;;;;;3.00;0.80;;;;;;;;;;5031443;28;20057;-71
2022/08/08 11:05:15;;;;;;;1.73;0.57;;;;;;;;;;5031228;28;20049;-71
2022/08/08 11:07:47;;;;;;;2.80;0.65;;;;;;;;;;5031188;28;20490;-72
2022/08/08 11:10:33;;;;;;;1.98;0.60;;;;;;;;;;5031383;28;20203;-72
2022/08/08 11:13:00;;;;;;;1.70;0.60;;;;;;;;;;5031073;28;20133;-72
2022/08/08 11:15:48;;;;;;;2.58;0.73;;;;;;;;;;5031295;28;20512;-71
2022/08/08 11:18:26;;;;;;;2.38;0.60;;;;;;;;;;5031367;28;20052;-72
2022/08/08 11:20:55;;;;;;;2.47;0.50;;;;;;;;;;5031134;28;20156;-72
2022/08/08 11:23:24;;;;;;;2.97;0.88;;;;;;;;;;5030991;28;20455;-72
2022/08/08 11:25:57;;;;;;;2.45;0.60;;;;;;;;;;5034594;28;20168;-72
2022/08/08 11:28:24;;;;;;;1.77;0.75;;;;;;;;;;5034804;28;20049;-71
2022/08/08 11:30:58;;;;;;;1.58;0.70;;;;;;;;;;5034811;28;20045;-72
2022/08/08 11:33:26;;;;;;;0.60;0.50;;;;;;;;;;5034683;28;20132;-72
2022/08/08 11:36:13;;;;;;;1.15;0.65;;;;;;;;;;5034378;28;20132;-70
2022/08/08 11:38:41;;;;;;;1.40;0.60;;;;;;;;;;5034527;28;20401;-72
2022/08/08 11:41:24;;;;;;;1.17;0.70;;;;;;;;;;5034480;28;20592;-71
2022/08/08 11:43:57;;;;;;;1.15;0.50;;;;;;;;;;5034344;28;20053;-71
2022/08/08 11:46:26;;;;;;;0.77;0.60;;;;;;;;;;5034216;28;20489;-72
2022/08/08 11:48:56;;;;;;;1.95;0.93;;;;;;;;;;5034155;28;20049;-72
2022/08/08 11:51:24;;;;;;;0.68;0.50;;;;;;;;;;5034195;28;20084;-72
2022/08/08 11:54:00;;;;;;;1.17;0.50;;;;;;;;;;5034373;28;20088;-72
2022/08/08 11:56:33;;;;;;;2.33;0.60;;;;;;;;;;5034090;28;20648;-70
2022/08/08 11:59:10;;;;;;;0.73;0.50;;;;;;;;;;5034082;28;20057;-70
2022/08/08 12:01:37;;;;;;;1.95;0.40;;;;;;;;;;5033863;28;20099;-70
2022/08/08 12:04:04;;;;;;;1.75;0.63;;;;;;;;;;5033980;28;20092;-71
2022/08/08 12:06:33;;;;;;;1.42;0.60;;;;;;;;;;5033823;28;20053;-70
2022/08/08 12:09:05;;;;;;;0.57;0.52;;;;;;;;;;5033902;28;20049;-70
2022/08/08 12:11:37;;;;;;;1.10;0.55;;;;;;;;;;5033945;28;20125;-70
2022/08/08 12:14:05;;;;;;;0.82;0.40;;;;;;;;;;5034092;28;20103;-70
2022/08/08 12:16:46;;;;;;;1.05;0.68;;;;;;;;;;5033928;28;20124;-70
2022/08/08 12:19:14;;;;;;;1.85;0.60;;;;;;;;;;5033941;28;20303;-71
2022/08/08 12:21:40;;;;;;;2.17;0.70;;;;;;;;;;5033609;28;20092;-70
2022/08/08 12:24:27;;;;;;;0.65;0.60;;;;;;;;;;5029700;28;20432;-69
2022/08/08 12:26:55;;;;;;;0.40;0.40;;;;;;;;;;5033170;28;20057;-69
2022/08/08 12:29:27;;;;;;;1.45;0.77;;;;;;;;;;5032914;28;20078;-69
2022/08/08 12:32:12;;;;;;;0.95;0.60;;;;;;;;;;5033181;28;20136;-69
2022/08/08 12:35:02;;;;;;;0.68;0.45;;;;;;;;;;5032402;28;20436;-69
2022/08/08 12:37:44;;;;;;;;;;;;;;;;;;5033454;28;20080;-67
2022/08/08 12:40:35;;;;;;;0.80;0.70;;;;;;;;;;5032388;28;19932;-68
2022/08/08 12:43:09;;;;;;;0.38;0.38;;;;;;;;;;5032603;28;20405;-69
2022/08/08 12:45:40;;;;;;;1.95;0.60;;;;;;;;;;5032821;28;20046;-68
2022/08/08 12:48:26;;;;;;;1.10;0.50;;;;;;;;;;5032571;28;20059;-68
2022/08/08 12:51:04;;;;;;;0.93;0.55;;;;;;;;;;5032538;28;20119;-68
2022/08/08 12:53:33;;;;;;;0.73;0.50;;;;;;;;;;5032617;28;20045;-68
2022/08/08 12:56:09;;;;;;;1.13;0.40;;;;;;;;;;5031266;28;20049;-68
2022/08/08 12:58:49;;;;;;;1.77;0.50;;;;;;;;;;5030575;28;20060;-68
2022/08/08 13:01:16;;;;;;;0.57;0.50;;;;;;;;;;5032093;28;20048;-68
2022/08/08 13:04:10;;;;;;;3.50;0.70;;;;;;;;;;5030033;28;20485;-68
2022/08/08 13:06:36;;;;;;;0.60;0.57;;;;;;;;;;5031203;28;20050;-68
2022/08/08 13:09:07;;;;;;;1.77;0.50;;;;;;;;;;5032222;28;20049;-69
2022/08/08 13:11:37;;;;;;;1.88;0.57;;;;;;;;;;5032522;28;20080;-69
2022/08/08 13:14:37;;;;;;;1.85;0.60;;;;;;;;;;5032437;28;20049;-67
2022/08/08 13:17:18;;;;;;;;;;;;;;;;;;5032778;28;20047;-69
2022/08/08 13:20:11;;;;;;;1.90;0.60;;;;;;;;;;5032487;28;19927;-69
2022/08/08 13:22:38;;;;;;;0.60;0.60;;;;;;;;;;5032493;28;20060;-69
2022/08/08 13:25:05;;;;;;;0.82;0.50;;;;;;;;;;5031914;28;20444;-68
2022/08/08 13:27:31;;;;;;;0.73;0.70;;;;;;;;;;5032297;28;20045;-67
2022/08/08 13:30:03;;;;;;;0.93;0.55;;;;;;;;;;5032075;28;20111;-68
2022/08/08 13:32:34;;;;;;;0.47;0.40;;;;;;;;;;5031897;28;20084;-68
2022/08/08 13:35:02;;;;;;;0.98;0.57;;;;;;;;;;5032005;28;20055;-68
2022/08/08 13:37:38;;;;;;;1.35;0.60;;;;;;;;;;5030976;28;20045;-68
2022/08/08 13:40:24;;;;;;;1.30;0.68;;;;;;;;;;5030841;28;20058;-68
2022/08/08 13:42:53;;;;;;;0.40;0.40;;;;;;;;;;5031524;28;20049;-68
2022/08/08 13:45:19;;;;;;;0.85;0.50;;;;;;;;;;5031168;28;20132;-69
2022/08/08 13:47:56;;;;;;;0.85;0.57;;;;;;;;;;5030729;28;20087;-69
2022/08/08 13:50:23;;;;;;;1.95;0.50;;;;;;;;;;5031496;28;20104;-69
2022/08/08 13:53:07;;;;;;;1.43;0.60;;;;;;;;;;5031408;28;20041;-67
2022/08/08 13:55:57;;;;;;;2.38;0.50;;;;;;;;;;5030051;28;20365;-67
2022/08/08 13:58:26;;;;;;;0.77;0.40;;;;;;;;;;5031096;28;20140;-67
2022/08/08 14:00:54;;;;;;;0.98;0.60;;;;;;;;;;5029091;28;20468;-68
2022/08/08 14:03:28;;;;;;;1.05;0.70;;;;;;;;;;5030902;28;20497;-68
2022/08/08 14:06:15;;;;;;;0.75;0.50;;;;;;;;;;5030487;28;20080;-68
2022/08/08 14:09:00;;;;;;;0.77;0.60;;;;;;;;;;5031173;28;20432;-69
2022/08/08 14:11:46;;;;;;;1.30;0.70;;;;;;;;;;5030774;28;20589;-68
2022/08/08 14:14:14;;;;;;;1.10;0.40;;;;;;;;;;5021994;28;20460;-68
2022/08/08 14:16:49;;;;;;;1.33;0.57;;;;;;;;;;5024080;28;20054;-68
2022/08/08 14:19:15;;;;;;;1.67;0.50;;;;;;;;;;5030007;28;20057;-68
2022/08/08 14:22:11;;;;;;;1.55;0.52;;;;;;;;;;5030541;28;20064;-68
2022/08/08 14:25:03;;;;;;;2.50;0.60;;;;;;;;;;5031216;28;20053;-68
2022/08/08 14:27:34;;;;;;;1.35;0.60;;;;;;;;;;5031721;28;20057;-68
2022/08/08 14:30:02;;;;;;;0.70;0.68;;;;;;;;;;5031451;28;20072;-68
2022/08/08 14:32:45;;;;;;;1.65;0.60;;;;;;;;;;5031449;28;20054;-68
2022/08/08 14:35:18;;;;;;;0.40;0.40;;;;;;;;;;5031270;28;20057;-68
2022/08/08 14:37:46;;;;;;;1.40;0.60;;;;;;;;;;5031475;28;20115;-68
2022/08/08 14:40:27;;;;;;;0.85;0.40;;;;;;;;;;5031422;28;20087;-68
2022/08/08 14:42:56;;;;;;;2.47;0.65;;;;;;;;;;5031354;28;20057;-68
2022/08/08 14:45:28;;;;;;;0.85;0.75;;;;;;;;;;5031267;28;20128;-68
2022/08/08 14:48:14;;;;;;;0.50;0.47;;;;;;;;;;5030476;28;20063;-68
2022/08/08 14:50:43;;;;;;;1.27;0.70;;;;;;;;;;5031329;28;20048;-68
2022/08/08 14:53:11;;;;;;;2.20;0.60;;;;;;;;;;5031259;28;20054;-68
2022/08/08 14:55:39;;;;;;;1.27;0.60;;;;;;;;;;5031290;28;20045;-68
2022/08/08 14:58:08;;;;;;;1.45;0.60;;;;;;;;;;5032362;28;20053;-68
2022/08/08 15:00:42;;;;;;;1.55;0.30;;;;;;;;;;5035363;28;20063;-68
2022/08/08 15:03:09;;;;;;;1.00;0.50;;;;;;;;;;5035002;28;20520;-69
2022/08/08 15:05:41;;;;;;;1.10;0.50;;;;;;;;;;5034855;28;20057;-68
2022/08/08 15:08:23;;;;;;;0.57;0.40;;;;;;;;;;5035086;28;20050;-69
2022/08/08 15:11:04;;;;;;;1.88;0.80;;;;;;;;;;5034878;28;20107;-69
2022/08/08 15:13:32;;;;;;;1.42;0.60;;;;;;;;;;5034869;28;20132;-69
2022/08/08 15:16:07;;;;;;;0.80;0.50;;;;;;;;;;5035086;28;20046;-68
2022/08/08 15:18:38;;;;;;;0.43;0.40;;;;;;;;;;5034873;28;20572;-68
2022/08/08 15:21:09;;;;;;;3.75;0.52;;;;;;;;;;5034854;28;20056;-68
2022/08/08 15:23:37;;;;;;;1.85;0.60;;;;;;;;;;5034640;28;20057;-68
2022/08/08 15:26:04;;;;;;;3.05;0.88;;;;;;;;;;5034447;28;20085;-68
2022/08/08 15:28:37;;;;;;;1.60;1.30;;;;;;;;;;5034860;28;20049;-68
2022/08/08 15:31:04;;;;;;;1.33;0.45;;;;;;;;;;5034906;28;20501;-68
2022/08/08 15:33:30;;;;;;;0.40;0.40;;;;;;;;;;5034390;28;20081;-68
2022/08/08 15:36:17;;;;;;;0.70;0.40;;;;;;;;;;5032189;28;20489;-66
2022/08/08 15:38:47;;;;;;;3.90;0.80;;;;;;;;;;5033872;28;20042;-66
2022/08/08 15:41:16;;;;;;;0.52;0.40;;;;;;;;;;5034191;28;20127;-66
2022/08/08 15:43:50;;;;;;;0.93;0.50;;;;;;;;;;5033813;28;20045;-66
2022/08/08 15:46:28;;;;;;;0.73;0.50;;;;;;;;;;5034012;28;20081;-66
2022/08/08 15:49:00;;;;;;;1.00;0.40;;;;;;;;;;5034031;28;20499;-67